Not for real navigation | The accuracy of this data is not assured | See disclaimer for more information
ICAO NAME COUNTRY WIND Kt GUST Kt VIS TEMP/DEW BARO
UHWW Vladivostok Russia 0 0 100 8/8 29.62
UHWW 261530Z 00000KT 0100 R25L/0900U FG VV002 08/08 Q1003 R25L/290060 NOSIG RMK QBB060 MT OBSC QFE751
CYCO Coppermine, N. W. T. Canada 3 0 200 -7/-8 29.97
CYCO 261500Z 36003KT 330V040 0.125SM FZFG VV003 M07/M08 A2997 RMK FG8 SLP153
NZCH Christchurch New Zealand 2 0 200 2/2 30.27
NZCH 261530Z AUTO 31002KT 0200 R02/1000U R20/1900U FG VV002 02/02 Q1025 TEMPO 2000 BR
CYPC Paulatuk Airport Canada 7 0 400 -4/-4 29.97
CYPC 261522Z 29007KT 0.25SM FZFG VV003 M04/M04 A2997 RMK FG8 SLP151
CYQI Yarmouth, N. S. Canada 4 0 400 14/14 30.27
CYQI 261552Z 18004KT 150V210 0.25SM FG VV002 14/14 A3027 RMK FG8 SLP252

Show more